Time;durP1;ratioP1;P1;durP2;ratioP2;P2;SDS_P1;SDS_P2;PMS_P1;PMS_P2;Temp;Humidity;BMP_temperature;BMP_pressure;BME280_temperature;BME280_humidity;BME280_pressure;Samples;Min_cycle;Max_cycle;Signal;HPM_P1;HPM_P2
2021/06/04 00:07:47;;;;;;;3.21;1.70;;;;;;;16.54;87.89;99717.09;2027509;70;20294;-82
2021/06/04 00:10:57;;;;;;;2.03;1.70;;;;;;;16.51;87.86;99704.03;2019002;80;20201;-83
2021/06/04 00:14:05;;;;;;;6.10;1.73;;;;;;;16.41;87.48;99715.63;2018161;80;20180;-82
2021/06/04 00:17:14;;;;;;;2.83;1.60;;;;;;;16.32;87.77;99705.34;2016948;78;180413;-84
2021/06/04 00:20:26;;;;;;;2.50;1.70;;;;;;;16.28;87.75;99706.31;2018690;80;20209;-84
2021/06/04 00:23:29;;;;;;;2.85;1.89;;;;;;;16.29;87.66;99708.03;2017515;80;20280;-82
2021/06/04 00:26:34;;;;;;;1.85;1.52;;;;;;;16.27;87.78;99710.69;2018952;80;20259;-82
2021/06/04 00:29:39;;;;;;;2.41;1.89;;;;;;;16.24;87.84;99700.28;2018949;80;20181;-82
2021/06/04 00:32:42;;;;;;;2.47;1.71;;;;;;;16.22;87.98;99699.47;2016204;78;214087;-82
2021/06/04 00:35:45;;;;;;;3.79;1.85;;;;;;;16.19;88.02;99699.53;2018956;80;20238;-82
2021/06/04 00:38:48;;;;;;;2.86;1.80;;;;;;;16.17;88.04;99697.84;2024954;80;20231;-82
2021/06/04 00:41:56;;;;;;;1.65;1.52;;;;;;;16.15;88.24;99694.38;2017613;80;20193;-82
2021/06/04 00:45:00;;;;;;;2.27;1.56;;;;;;;16.10;88.29;99696.25;2017764;80;20185;-82
2021/06/04 00:48:03;;;;;;;2.10;1.75;;;;;;;16.05;88.48;99696.34;2009601;80;980133;-82
2021/06/04 00:51:09;;;;;;;1.81;1.70;;;;;;;16.00;88.65;99693.00;2018319;80;20161;-81
2021/06/04 00:54:13;;;;;;;4.05;1.64;;;;;;;15.96;88.70;99694.78;2019937;80;20200;-81
2021/06/04 00:57:16;;;;;;;2.09;1.60;;;;;;;15.97;88.88;99688.66;2019890;80;20181;-83
2021/06/04 01:00:29;;;;;;;5.14;2.04;;;;;;;15.95;88.69;99685.19;2017351;78;141623;-77
2021/06/04 01:03:38;;;;;;;4.93;1.76;;;;;;;15.91;88.54;99691.41;2016913;81;20225;-82
2021/06/04 01:32:34;;;;;;;4.40;2.06;;;;;;;15.70;89.13;99697.09;1997302;70;2304405;-84
2021/06/04 01:35:42;;;;;;;2.31;1.82;;;;;;;15.67;89.21;99697.16;2020477;80;20215;-83
2021/06/04 01:38:49;;;;;;;3.59;2.14;;;;;;;15.68;89.01;99697.13;2023022;80;20174;-83
2021/06/04 01:41:54;;;;;;;2.25;1.67;;;;;;;15.65;88.83;99699.81;2020110;80;20142;-83
2021/06/04 01:45:05;;;;;;;2.72;2.46;;;;;;;15.62;88.84;99699.88;2020912;80;20238;-83
2021/06/04 01:48:12;;;;;;;3.15;2.41;;;;;;;15.65;89.08;99699.81;2021541;78;137557;-83
2021/06/04 01:54:47;;;;;;;4.05;2.22;;;;;;;15.69;89.68;99698.84;2024933;70;20296;-83
2021/06/04 02:04:44;;;;;;;2.58;1.69;;;;;;;15.63;89.41;99704.22;2026969;70;20519;-84
2021/06/04 02:07:47;;;;;;;2.42;2.22;;;;;;;15.64;89.69;99702.47;2016809;81;20174;-83
2021/06/04 02:10:51;;;;;;;2.70;2.14;;;;;;;15.70;89.92;99705.81;2014584;80;20218;-85
2021/06/04 02:13:55;;;;;;;4.05;2.25;;;;;;;15.76;89.78;99706.56;2019962;81;20177;-85
2021/06/04 02:20:44;;;;;;;2.44;1.65;;;;;;;15.75;89.78;99713.56;2017272;70;20847;-72
2021/06/04 02:24:06;;;;;;;2.53;2.15;;;;;;;15.77;89.77;99711.78;2002827;81;20607;-72
2021/06/04 02:27:26;;;;;;;4.60;2.36;;;;;;;15.81;89.70;99717.84;2003057;81;20166;-72
2021/06/04 02:30:42;;;;;;;2.53;2.33;;;;;;;15.78;89.72;99710.88;2002572;78;20964;-72
2021/06/04 02:34:04;;;;;;;2.96;2.08;;;;;;;15.81;90.02;99707.38;2002986;81;20267;-72
2021/06/04 02:37:16;;;;;;;4.32;2.04;;;;;;;15.81;89.99;99713.47;2002952;80;20243;-71
2021/06/04 02:40:32;;;;;;;3.10;2.30;;;;;;;15.79;89.86;99714.38;2002433;81;20228;-72
2021/06/04 02:43:43;;;;;;;2.51;2.36;;;;;;;15.80;89.94;99716.97;2004183;81;20259;-73
2021/06/04 02:46:50;;;;;;;2.50;2.09;;;;;;;15.78;89.81;99708.25;2004866;78;20238;-72
2021/06/04 02:49:54;;;;;;;2.90;1.92;;;;;;;15.79;90.11;99706.50;2005815;80;20372;-72
2021/06/04 02:53:16;;;;;;;2.45;2.25;;;;;;;15.78;90.17;99718.75;2006663;80;20952;-73
2021/06/04 02:56:21;;;;;;;2.35;2.15;;;;;;;15.75;90.22;99718.81;2005517;80;20228;-72
2021/06/04 02:59:35;;;;;;;3.71;2.31;;;;;;;15.70;90.40;99716.28;2006530;80;20193;-72
2021/06/04 03:02:39;;;;;;;5.80;2.67;;;;;;;15.68;90.67;99722.44;2000704;78;21068;-72
2021/06/04 03:05:41;;;;;;;2.30;2.06;;;;;;;15.70;90.90;99715.44;1996186;81;20194;-72
2021/06/04 03:08:46;;;;;;;2.10;2.00;;;;;;;15.70;90.90;99718.03;1999752;81;20211;-72
2021/06/04 03:11:51;;;;;;;4.45;2.09;;;;;;;15.71;90.86;99710.16;1999626;81;20625;-72
2021/06/04 03:14:57;;;;;;;3.09;2.00;;;;;;;15.73;90.92;99717.13;1999653;81;20182;-72
2021/06/04 03:18:00;;;;;;;2.47;2.31;;;;;;;15.73;91.09;99710.13;2003872;78;20390;-72
2021/06/04 03:21:11;;;;;;;2.31;2.06;;;;;;;15.75;91.11;99708.34;2004768;80;20169;-72
2021/06/04 03:24:17;;;;;;;2.21;1.95;;;;;;;15.79;91.19;99703.88;2005103;80;21004;-72
2021/06/04 03:27:22;;;;;;;2.85;2.25;;;;;;;15.81;nan;99702.13;2004464;80;20246;-71
2021/06/04 03:30:29;;;;;;;2.71;2.26;;;;;;;15.76;90.75;99701.34;2006571;78;22240;-72
2021/06/04 03:33:34;;;;;;;3.30;2.88;;;;;;;15.72;90.93;99705.78;1999155;81;20599;-72
2021/06/04 03:36:41;;;;;;;2.39;2.19;;;;;;;15.70;91.14;99705.81;1999983;81;20209;-72
2021/06/04 03:39:46;;;;;;;2.38;2.22;;;;;;;15.68;91.29;99710.22;2000188;80;20267;-73
2021/06/04 03:42:49;;;;;;;4.60;2.41;;;;;;;15.71;91.48;99722.38;1999551;81;20640;-72
2021/06/04 03:45:53;;;;;;;3.56;2.20;;;;;;;15.74;91.45;99722.31;2000772;79;23395;-72
2021/06/04 03:48:56;;;;;;;2.29;2.09;;;;;;;15.69;91.43;99729.41;2005716;80;20641;-72
2021/06/04 03:51:59;;;;;;;2.72;2.20;;;;;;;15.68;91.53;99731.16;2004668;80;21085;-74
2021/06/04 03:55:04;;;;;;;2.79;2.26;;;;;;;15.66;91.50;99743.44;2005331;80;21108;-72
2021/06/04 03:58:07;;;;;;;3.09;2.40;;;;;;;15.68;91.67;99741.63;2004883;80;20232;-72
2021/06/04 04:01:15;;;;;;;4.46;2.25;;;;;;;15.73;91.79;99744.16;2004241;78;20555;-72
2021/06/04 04:04:19;;;;;;;2.40;2.04;;;;;;;15.78;91.93;99750.16;2004569;80;20184;-72
2021/06/04 04:07:24;;;;;;;4.07;2.25;;;;;;;15.77;91.58;99756.28;2004846;80;20897;-72
2021/06/04 04:10:27;;;;;;;3.59;1.96;;;;;;;15.74;91.56;99756.34;2004515;80;20251;-72
2021/06/04 04:13:30;;;;;;;2.51;2.31;;;;;;;15.76;91.68;99759.81;2004660;80;20169;-72
2021/06/04 04:16:33;;;;;;;1.98;1.85;;;;;;;15.80;91.72;99764.13;2002302;78;20438;-72
2021/06/04 04:19:36;;;;;;;2.70;2.44;;;;;;;15.82;91.63;99759.69;1999824;81;20203;-72
2021/06/04 04:22:38;;;;;;;3.94;2.19;;;;;;;15.87;91.71;99755.22;1999689;80;20185;-72
2021/06/04 04:25:43;;;;;;;3.45;2.10;;;;;;;15.91;91.75;99751.66;1999419;81;20209;-72
2021/06/04 04:28:47;;;;;;;4.51;2.17;;;;;;;15.95;91.58;99753.31;1999627;81;20209;-72
2021/06/04 04:31:56;;;;;;;6.20;1.86;;;;;;;16.00;91.50;99755.84;1998868;78;20849;-72
2021/06/04 04:34:58;;;;;;;1.84;1.70;;;;;;;16.04;91.46;99760.13;1999161;81;20189;-72
2021/06/04 04:38:03;;;;;;;2.84;2.14;;;;;;;16.09;91.20;99757.41;1999719;81;20197;-72
2021/06/04 04:41:08;;;;;;;3.06;2.09;;;;;;;16.10;91.08;99754.75;1999981;81;20541;-72
2021/06/04 04:44:11;;;;;;;5.30;2.35;;;;;;;16.10;90.75;99749.50;1999527;80;20219;-72
2021/06/04 04:47:16;;;;;;;5.65;2.66;;;;;;;16.11;90.51;99745.13;2002455;78;22970;-72
2021/06/04 04:50:21;;;;;;;5.11;2.31;;;;;;;16.14;90.50;99753.78;2004623;80;20242;-72
2021/06/04 04:53:25;;;;;;;9.10;2.34;;;;;;;16.16;90.23;99756.41;2004768;80;20609;-72
2021/06/04 04:56:28;;;;;;;9.34;2.13;;;;;;;16.15;90.19;99750.25;2004526;80;20205;-72
2021/06/04 04:59:31;;;;;;;19.50;2.59;;;;;;;16.18;90.20;99754.59;2004922;80;20267;-73
2021/06/04 05:02:34;;;;;;;5.76;2.74;;;;;;;16.26;90.28;99750.91;1999683;78;21121;-73
2021/06/04 05:05:37;;;;;;;3.16;2.19;;;;;;;16.66;89.56;99760.50;1999308;81;20205;-72
2021/06/04 05:08:40;;;;;;;2.61;1.77;;;;;;;16.96;88.42;99752.84;1999452;81;20467;-73
2021/06/04 05:11:45;;;;;;;5.78;2.00;;;;;;;17.02;87.75;99747.44;1999653;81;20166;-73
2021/06/04 05:14:47;;;;;;;2.89;1.84;;;;;;;17.19;87.37;99756.59;2002829;80;20207;-72
2021/06/04 05:17:50;;;;;;;3.06;1.96;;;;;;;17.63;85.63;99751.94;2003985;78;23029;-72
2021/06/04 05:20:53;;;;;;;2.29;2.00;;;;;;;18.03;83.84;99753.50;2004712;80;20196;-73
2021/06/04 05:23:56;;;;;;;2.65;1.85;;;;;;;18.12;82.98;99755.84;2004819;80;20173;-73
2021/06/04 05:26:58;;;;;;;5.63;1.99;;;;;;;18.19;82.71;99759.16;2004672;80;20643;-73
2021/06/04 05:30:02;;;;;;;3.34;2.19;;;;;;;18.42;82.47;99764.59;2004489;80;20742;-73
2021/06/04 05:33:07;;;;;;;3.26;2.10;;;;;;;18.96;80.36;99758.53;2000615;78;20185;-73
2021/06/04 05:36:14;;;;;;;4.26;1.91;;;;;;;19.69;77.46;99763.94;2000277;81;20202;-73
2021/06/04 05:39:22;;;;;;;3.20;2.05;;;;;;;20.29;74.34;99754.72;2000695;81;20632;-73
2021/06/04 05:42:25;;;;;;;7.18;2.09;;;;;;;20.78;72.87;99747.50;2000918;81;20174;-73
2021/06/04 05:45:32;;;;;;;5.06;1.59;;;;;;;21.22;71.89;99763.31;2001000;77;21219;-73
2021/06/04 05:48:35;;;;;;;3.54;1.60;;;;;;;21.60;70.00;99759.94;2006321;80;20165;-73
2021/06/04 05:51:39;;;;;;;2.51;1.90;;;;;;;21.97;68.20;99763.59;2005869;80;20225;-73
2021/06/04 05:54:44;;;;;;;3.60;1.52;;;;;;;22.21;66.85;99757.19;2005947;80;20305;-73
2021/06/04 05:57:47;;;;;;;2.65;1.38;;;;;;;22.55;65.99;99759.13;2005026;80;20181;-73
2021/06/04 06:00:55;;;;;;;2.20;1.45;;;;;;;22.90;64.70;99767.19;2002068;78;20282;-74
2021/06/04 06:03:57;;;;;;;;;;;;;;;23.25;63.15;99757.50;1999541;81;20206;-73
2021/06/04 06:07:00;;;;;;;1.38;1.25;;;;;;;23.47;62.37;99760.75;1998805;81;20082;-73
2021/06/04 06:10:05;;;;;;;2.00;1.80;;;;;;;23.75;61.21;99772.63;1998709;81;20174;-74
2021/06/04 06:13:08;;;;;;;1.76;1.21;;;;;;;23.90;60.71;99765.66;2001002;81;20239;-80
2021/06/04 06:16:10;;;;;;;4.18;1.40;;;;;;;24.03;59.79;99764.91;2010889;78;21333;-80
2021/06/04 06:19:16;;;;;;;1.60;1.21;;;;;;;24.38;59.20;99772.78;2013446;80;20237;-82
2021/06/04 06:22:19;;;;;;;4.63;1.26;;;;;;;24.55;57.81;99771.84;2016710;80;20228;-80
2021/06/04 06:25:28;;;;;;;2.85;1.25;;;;;;;24.70;57.21;99771.84;2016554;80;20201;-80
2021/06/04 06:28:34;;;;;;;6.84;1.24;;;;;;;24.99;57.01;99764.91;2018850;80;20173;-79
2021/06/04 06:31:40;;;;;;;3.47;1.30;;;;;;;25.31;56.71;99767.47;2011457;78;20460;-80
2021/06/04 06:34:43;;;;;;;1.13;1.00;;;;;;;25.36;55.69;99772.56;2009369;81;20185;-80
2021/06/04 06:37:45;;;;;;;4.39;1.21;;;;;;;25.38;55.80;99771.50;2015646;80;20126;-83
2021/06/04 06:44:07;;;;;;;2.97;1.08;;;;;;;25.42;56.34;99777.50;2117910;70;20209;-83
2021/06/04 06:47:27;;;;;;;3.54;0.96;;;;;;;25.63;55.53;99783.34;2084347;70;20217;-84
2021/06/04 06:50:38;;;;;;;1.80;1.10;;;;;;;25.76;54.85;99781.69;2111373;69;20190;-79
2021/06/04 06:53:42;;;;;;;6.84;1.10;;;;;;;25.78;53.77;99777.97;2002068;81;20362;-77
2021/06/04 06:56:49;;;;;;;4.66;1.17;;;;;;;25.95;53.23;99779.59;2003020;81;20597;-82
2021/06/04 06:59:51;;;;;;;2.70;1.10;;;;;;;26.19;53.30;99783.41;1998195;81;20267;-80
2021/06/04 07:02:54;;;;;;;4.11;1.34;;;;;;;26.37;52.00;99775.25;1998637;78;22705;-82
2021/06/04 07:06:00;;;;;;;5.09;1.10;;;;;;;26.43;50.70;99777.53;1998695;81;20204;-81
2021/06/04 07:09:10;;;;;;;3.88;1.26;;;;;;;26.54;51.21;99780.34;2000880;81;20190;-80
2021/06/04 07:12:13;;;;;;;2.74;1.13;;;;;;;26.59;49.79;99775.59;2001720;81;20326;-82
2021/06/04 07:15:18;;;;;;;3.08;1.02;;;;;;;26.68;49.95;99780.31;1996713;81;20246;-83
2021/06/04 07:18:21;;;;;;;3.24;1.02;;;;;;;26.79;49.04;99783.16;2002012;81;20171;-83
2021/06/04 07:21:26;;;;;;;5.18;1.00;;;;;;;26.82;50.21;99771.44;1999872;81;20272;-83
2021/06/04 07:24:29;;;;;;;6.55;1.30;;;;;;;26.85;49.27;99767.72;2000403;81;20187;-80
2021/06/04 07:27:33;;;;;;;2.09;1.20;;;;;;;26.83;49.42;99775.81;2000202;81;20754;-79
2021/06/04 07:30:43;;;;;;;2.72;1.40;;;;;;;26.65;49.55;99777.88;1999416;78;23103;-85
2021/06/04 07:33:51;;;;;;;2.80;1.00;;;;;;;26.67;49.38;99778.63;1993056;81;20677;-85
2021/06/04 07:36:54;;;;;;;;;;;;;;;26.75;48.91;99778.09;1995104;81;20554;-83
2021/06/04 07:39:57;;;;;;;2.40;0.80;;;;;;;26.76;48.73;99785.19;1994410;81;20102;-80
2021/06/04 07:43:02;;;;;;;2.65;0.80;;;;;;;27.09;48.65;99790.97;1990941;81;20179;-83
2021/06/04 07:46:07;;;;;;;1.34;0.85;;;;;;;27.28;48.85;99787.94;1992832;79;20699;-82
2021/06/04 07:49:10;;;;;;;0.98;0.80;;;;;;;27.32;48.05;99792.13;1995660;81;20243;-83
2021/06/04 07:52:13;;;;;;;1.83;0.80;;;;;;;27.44;48.16;99793.09;1992468;81;20227;-84
2021/06/04 07:55:16;;;;;;;2.55;0.84;;;;;;;27.57;48.29;99795.78;1997329;81;20200;-72
2021/06/04 07:58:20;;;;;;;4.09;0.86;;;;;;;27.51;47.39;99794.41;1997231;81;20240;-73
2021/06/04 08:01:23;;;;;;;1.61;0.84;;;;;;;27.28;47.21;99797.75;1996431;78;20707;-73
2021/06/04 08:04:26;;;;;;;3.64;0.90;;;;;;;27.00;47.41;99788.06;1997103;81;20309;-75
2021/06/04 08:07:28;;;;;;;3.78;0.90;;;;;;;26.93;48.21;99787.59;1997537;81;20182;-73
2021/06/04 08:10:33;;;;;;;2.47;0.81;;;;;;;27.06;48.06;99787.66;1996998;81;20171;-76
2021/06/04 08:13:36;;;;;;;4.94;1.00;;;;;;;27.01;48.17;99777.31;1996796;81;20186;-75
2021/06/04 08:16:42;;;;;;;2.25;0.90;;;;;;;27.33;48.78;99783.16;1993295;78;25901;-75
2021/06/04 08:19:44;;;;;;;3.26;0.90;;;;;;;27.56;47.80;99786.94;1991870;81;20285;-74
2021/06/04 08:22:47;;;;;;;4.63;1.00;;;;;;;27.47;47.87;99784.91;1991860;81;20753;-75
2021/06/04 08:25:54;;;;;;;2.29;0.96;;;;;;;27.61;47.88;99782.13;1992254;81;20201;-74
2021/06/04 08:28:58;;;;;;;1.71;0.86;;;;;;;27.68;47.85;99779.94;1991957;81;20191;-74
2021/06/04 08:32:04;;;;;;;2.94;0.95;;;;;;;27.85;47.64;99776.97;1990701;78;21902;-74
2021/06/04 08:35:08;;;;;;;2.31;1.26;;;;;;;27.87;47.89;99777.72;1991392;81;20200;-74
2021/06/04 08:38:11;;;;;;;2.66;0.91;;;;;;;27.87;47.06;99767.03;1991072;81;20262;-74
2021/06/04 08:41:19;;;;;;;2.41;0.70;;;;;;;28.10;47.68;99753.88;1991435;81;20211;-74
2021/06/04 08:44:44;;;;;;;2.24;0.90;;;;;;;28.28;47.31;99749.91;1991112;81;20232;-74
2021/06/04 08:47:54;;;;;;;5.93;0.90;;;;;;;28.54;47.69;99751.53;1993971;78;23379;-73
2021/06/04 08:51:17;;;;;;;1.44;0.70;;;;;;;28.46;45.42;99751.25;1995623;81;20175;-73
2021/06/04 08:54:39;;;;;;;1.91;0.93;;;;;;;28.52;45.45;99760.63;1996816;81;20198;-73
2021/06/04 08:57:52;;;;;;;4.59;0.80;;;;;;;28.53;46.01;99763.19;1996599;81;20191;-75
2021/06/04 09:00:59;;;;;;;2.74;0.80;;;;;;;28.57;45.36;99753.16;1993832;78;21851;-74
2021/06/04 09:04:09;;;;;;;3.19;0.94;;;;;;;28.73;45.45;99748.41;1990948;81;20625;-75
2021/06/04 09:07:23;;;;;;;2.13;0.86;;;;;;;28.78;44.21;99751.59;1991283;81;20171;-74
2021/06/04 09:10:33;;;;;;;2.55;0.90;;;;;;;28.99;44.53;99748.31;1991054;81;20183;-75
2021/06/04 09:13:38;;;;;;;2.50;0.80;;;;;;;29.12;42.79;99746.44;1991135;81;20183;-74
2021/06/04 09:17:04;;;;;;;1.56;0.90;;;;;;;29.15;42.29;99748.88;1990923;78;21106;-74
2021/06/04 09:20:15;;;;;;;5.71;0.90;;;;;;;29.41;43.92;99753.06;1991323;81;20289;-76
2021/06/04 09:23:25;;;;;;;2.01;1.19;;;;;;;29.71;43.29;99749.03;1991415;81;20261;-78
2021/06/04 09:26:29;;;;;;;6.89;3.00;;;;;;;29.77;41.38;99743.19;1990790;81;20189;-76
2021/06/04 09:29:32;;;;;;;4.71;1.00;;;;;;;29.86;42.77;99750.53;1991399;81;20171;-77
2021/06/04 09:32:36;;;;;;;2.38;0.90;;;;;;;30.01;42.25;99752.00;1992948;78;20681;-76
2021/06/04 09:36:13;;;;;;;4.06;0.93;;;;;;;30.06;41.81;99752.50;1995604;81;20243;-75
2021/06/04 09:39:48;;;;;;;5.30;1.58;;;;;;;29.71;41.32;99749.03;1995333;81;20196;-75
2021/06/04 09:42:57;;;;;;;2.22;0.89;;;;;;;29.86;43.77;99745.16;1992218;81;20303;-70
2021/06/04 09:46:05;;;;;;;4.06;0.80;;;;;;;30.16;41.68;99733.00;1991316;78;21534;-72
2021/06/04 09:49:09;;;;;;;3.78;1.60;;;;;;;30.07;41.60;99739.97;1988706;81;20164;-73
2021/06/04 09:52:32;;;;;;;5.54;0.84;;;;;;;30.10;41.08;99741.53;1988610;81;20682;-73
2021/06/04 09:55:41;;;;;;;4.71;0.96;;;;;;;30.10;42.04;99729.00;1988510;81;20213;-73
2021/06/04 09:58:50;;;;;;;1.26;0.82;;;;;;;30.13;41.49;99725.22;1991004;81;20228;-72
2021/06/04 10:01:54;;;;;;;6.85;2.30;;;;;;;29.67;41.33;99729.69;1993376;79;20204;-72
2021/06/04 10:05:25;;;;;;;2.96;1.10;;;;;;;29.72;42.96;99730.19;1995640;81;20638;-73
2021/06/04 10:08:29;;;;;;;2.58;1.10;;;;;;;29.72;42.68;99723.97;1996574;81;20902;-71
2021/06/04 10:11:53;;;;;;;3.66;1.25;;;;;;;30.06;41.78;99730.22;1996392;81;20198;-79
2021/06/04 10:14:59;;;;;;;4.84;1.26;;;;;;;30.08;41.05;99718.41;1995855;81;20854;-75
2021/06/04 10:18:35;;;;;;;5.41;1.46;;;;;;;30.00;41.87;99719.97;1995267;79;26395;-73
2021/06/04 10:21:38;;;;;;;3.11;1.02;;;;;;;30.20;40.74;99719.28;1996152;81;20348;-74
2021/06/04 10:25:03;;;;;;;1.94;0.96;;;;;;;30.21;39.84;99728.16;1995348;81;20303;-75
2021/06/04 10:28:05;;;;;;;6.72;0.90;;;;;;;30.27;41.38;99715.09;1993890;81;20448;-74
2021/06/04 10:31:17;;;;;;;2.46;0.94;;;;;;;30.21;40.32;99712.09;1991935;78;21832;-74
2021/06/04 10:35:07;;;;;;;3.50;1.01;;;;;;;29.52;41.36;99690.75;1991725;81;20230;-75
2021/06/04 10:38:18;;;;;;;4.47;0.79;;;;;;;29.83;42.43;99691.88;1982137;81;20237;-77
2021/06/04 10:41:33;;;;;;;1.91;0.95;;;;;;;30.05;41.55;99696.38;1991862;81;20427;-75
2021/06/04 10:44:57;;;;;;;7.28;1.44;;;;;;;29.66;40.50;99690.53;1991844;81;20307;-75
2021/06/04 10:48:38;;;;;;;3.25;1.00;;;;;;;29.92;40.36;99682.22;1996444;78;20251;-74
2021/06/04 10:51:57;;;;;;;4.56;0.77;;;;;;;30.26;40.10;99678.56;1997017;81;20206;-76
2021/06/04 10:55:35;;;;;;;4.20;1.61;;;;;;;30.37;38.19;99689.28;1996948;81;20222;-76
2021/06/04 10:58:59;;;;;;;2.50;0.84;;;;;;;30.58;38.42;99683.13;1992666;81;20159;-75
2021/06/04 11:02:23;;;;;;;2.22;0.90;;;;;;;30.43;36.42;99687.91;1990338;79;26691;-76
2021/06/04 11:05:53;;;;;;;4.36;0.80;;;;;;;30.36;37.09;99684.06;1990290;81;20202;-74
2021/06/04 11:09:13;;;;;;;2.70;0.91;;;;;;;30.08;38.27;99680.06;1990498;81;20191;-75
2021/06/04 11:12:40;;;;;;;2.58;0.84;;;;;;;29.67;39.20;99669.97;1989450;81;20685;-73
2021/06/04 11:16:13;;;;;;;3.67;1.24;;;;;;;29.70;41.08;99664.34;1987718;78;20569;-72
2021/06/04 11:19:27;;;;;;;3.51;1.00;;;;;;;30.30;39.94;99653.22;1988649;81;20208;-73
2021/06/04 11:22:44;;;;;;;5.81;1.06;;;;;;;30.35;38.40;99650.19;1989228;81;20211;-73
2021/06/04 11:26:02;;;;;;;4.03;0.81;;;;;;;30.49;38.20;99652.56;1990043;81;20229;-72
2021/06/04 11:29:15;;;;;;;2.15;0.85;;;;;;;30.60;38.84;99639.13;1989413;81;20764;-72
2021/06/04 11:32:22;;;;;;;3.85;0.82;;;;;;;30.54;38.80;99639.66;1990782;78;24090;-72
2021/06/04 11:35:29;;;;;;;5.20;1.49;;;;;;;30.38;38.19;99631.19;1992757;81;20212;-72
2021/06/04 11:38:35;;;;;;;5.18;0.90;;;;;;;30.40;39.93;99634.56;1993571;81;20202;-72
2021/06/04 11:41:50;;;;;;;3.56;0.95;;;;;;;30.65;39.38;99626.22;1994679;81;20232;-72
2021/06/04 11:44:56;;;;;;;3.71;1.09;;;;;;;30.35;39.29;99623.41;1995126;81;20166;-72
2021/06/04 11:48:27;;;;;;;7.21;0.85;;;;;;;29.88;39.14;99620.03;1989908;79;22565;-73
2021/06/04 11:51:33;;;;;;;2.88;0.93;;;;;;;30.43;40.08;99609.34;1990066;81;20232;-73
2021/06/04 11:54:39;;;;;;;2.78;1.16;;;;;;;30.86;38.31;99622.69;1989948;81;20218;-72
2021/06/04 11:57:52;;;;;;;1.24;0.80;;;;;;;30.83;37.09;99620.28;1989584;81;20810;-73
2021/06/04 12:01:31;;;;;;;5.69;0.90;;;;;;;30.38;38.37;99617.78;1992039;78;27370;-73
2021/06/04 12:04:33;;;;;;;4.38;1.05;;;;;;;29.58;38.71;99603.75;1994861;81;20178;-72
2021/06/04 12:07:37;;;;;;;3.28;0.90;;;;;;;29.25;40.79;99610.75;1994145;81;20200;-75
2021/06/04 12:10:46;;;;;;;4.11;0.80;;;;;;;29.60;39.75;99601.81;1995076;81;20645;-76
2021/06/04 12:13:49;;;;;;;3.01;0.86;;;;;;;29.81;39.34;99612.66;1994241;81;20287;-77
2021/06/04 12:17:20;;;;;;;4.75;1.40;;;;;;;29.91;39.43;99601.03;1989429;78;22609;-76
2021/06/04 12:20:26;;;;;;;5.85;0.70;;;;;;;30.36;37.46;99596.47;1989444;81;20605;-85
2021/06/04 12:23:50;;;;;;;4.16;0.79;;;;;;;30.68;37.21;99596.47;1989008;81;20216;-77
2021/06/04 12:27:11;;;;;;;1.96;0.76;;;;;;;30.57;37.28;99592.97;1989221;81;20321;-83
2021/06/04 12:30:45;;;;;;;0.82;0.60;;;;;;;30.96;35.14;99588.75;1989064;81;20294;-84
2021/06/04 12:33:55;;;;;;;4.14;1.20;;;;;;;31.29;34.83;99576.13;1989727;81;20182;-82
2021/06/04 12:37:25;;;;;;;2.53;0.75;;;;;;;31.55;37.04;99578.22;1988764;81;20296;-80
2021/06/04 12:40:31;;;;;;;3.78;0.70;;;;;;;31.48;34.61;99570.84;1990663;81;20253;-80
2021/06/04 12:43:35;;;;;;;3.51;0.70;;;;;;;31.61;33.87;99571.47;1989323;81;20373;-79
2021/06/04 12:46:38;;;;;;;1.20;0.60;;;;;;;31.57;33.75;99567.34;1992422;81;20811;-80
2021/06/04 12:49:41;;;;;;;1.04;0.70;;;;;;;30.80;34.66;99559.72;1994996;81;20996;-82
2021/06/04 12:52:45;;;;;;;3.06;0.73;;;;;;;30.84;37.08;99557.63;1995173;81;20676;-79
2021/06/04 12:55:51;;;;;;;1.34;0.84;;;;;;;31.49;36.63;99551.91;1994674;81;20182;-79
2021/06/04 12:59:02;;;;;;;2.24;0.70;;;;;;;31.51;33.84;99541.03;1996125;81;20170;-81
2021/06/04 13:02:11;;;;;;;2.36;0.63;;;;;;;31.67;35.86;99548.59;1990566;78;20330;-79
2021/06/04 13:05:15;;;;;;;1.80;0.76;;;;;;;31.85;33.54;99544.28;1989000;81;20186;-76
2021/06/04 13:08:22;;;;;;;2.58;0.82;;;;;;;31.95;34.82;99541.59;1990902;81;20186;-78
2021/06/04 13:11:33;;;;;;;3.85;0.71;;;;;;;31.85;33.67;99539.75;1991326;81;20723;-77
2021/06/04 13:14:41;;;;;;;4.44;0.70;;;;;;;31.34;34.70;99547.06;1990728;81;20202;-77
2021/06/04 13:18:02;;;;;;;1.79;0.73;;;;;;;30.86;35.01;99544.94;1995098;78;20964;-75
2021/06/04 13:21:22;;;;;;;2.36;0.60;;;;;;;30.84;36.02;99542.38;1994090;81;20196;-72
2021/06/04 13:24:35;;;;;;;5.00;0.90;;;;;;;30.58;35.47;99535.69;1996787;81;20541;-71
2021/06/04 13:27:38;;;;;;;3.31;0.84;;;;;;;30.94;37.82;99531.72;1995688;81;21057;-71
2021/06/04 13:30:55;;;;;;;3.04;0.80;;;;;;;31.30;36.41;99527.69;1993379;79;21864;-71
2021/06/04 13:34:08;;;;;;;1.49;0.75;;;;;;;31.35;33.95;99517.38;1991117;81;20297;-71
2021/06/04 13:37:16;;;;;;;3.42;0.88;;;;;;;31.30;34.79;99519.63;1990940;81;20159;-71
2021/06/04 13:40:21;;;;;;;2.36;0.80;;;;;;;31.69;35.56;99512.53;1990975;81;20207;-71
2021/06/04 13:43:43;;;;;;;4.44;0.61;;;;;;;31.71;35.23;99505.19;1991545;81;20648;-71
2021/06/04 13:46:53;;;;;;;5.16;0.70;;;;;;;31.84;35.87;99503.13;1993159;78;21818;-70
2021/06/04 13:50:12;;;;;;;4.05;0.80;;;;;;;31.91;35.48;99484.63;1995456;81;21736;-70
2021/06/04 13:53:15;;;;;;;2.28;0.70;;;;;;;31.84;34.51;99495.09;1996962;81;20191;-70
2021/06/04 13:56:23;;;;;;;4.04;0.73;;;;;;;31.13;35.84;99488.91;1995557;81;20251;-71
2021/06/04 13:59:27;;;;;;;;;;;;;;;30.95;36.42;99495.88;1995061;81;20201;-70
2021/06/04 14:02:32;;;;;;;1.58;0.77;;;;;;;31.10;35.76;99501.72;1988994;78;23422;-71
2021/06/04 14:05:36;;;;;;;3.10;0.60;;;;;;;31.41;34.64;99492.69;1989701;81;20179;-70
2021/06/04 14:08:38;;;;;;;2.09;0.90;;;;;;;31.58;34.15;99488.50;1989969;81;20175;-70
2021/06/04 14:11:57;;;;;;;2.44;0.79;;;;;;;31.57;35.13;99486.78;1989359;81;20199;-70
2021/06/04 14:14:59;;;;;;;3.81;0.69;;;;;;;31.19;34.67;99501.78;1991041;81;20305;-70
2021/06/04 14:18:22;;;;;;;3.06;0.90;;;;;;;30.63;35.49;99498.66;1988453;78;20926;-71
2021/06/04 14:21:38;;;;;;;3.56;0.76;;;;;;;30.29;35.74;99504.16;1989159;81;20170;-70
2021/06/04 14:24:50;;;;;;;2.63;0.82;;;;;;;30.34;35.99;99498.41;1989193;81;20200;-70
2021/06/04 14:28:14;;;;;;;4.00;0.95;;;;;;;30.42;36.34;99487.06;1989864;81;20178;-70
2021/06/04 14:31:18;;;;;;;3.15;0.81;;;;;;;30.27;36.70;99479.31;1990738;81;20747;-71
2021/06/04 14:34:29;;;;;;;3.35;0.89;;;;;;;30.07;36.96;99477.47;1997457;81;20280;-72
2021/06/04 14:37:45;;;;;;;2.63;0.91;;;;;;;30.00;37.63;99468.25;1994297;81;20170;-71
2021/06/04 14:40:48;;;;;;;2.44;0.89;;;;;;;30.20;38.20;99474.63;1994876;81;20757;-70
2021/06/04 14:43:55;;;;;;;3.67;0.95;;;;;;;30.11;37.89;99467.34;1995947;81;20235;-71
2021/06/04 14:47:30;;;;;;;2.69;0.88;;;;;;;30.22;37.94;99461.97;1992962;81;22597;-71
2021/06/04 14:50:34;;;;;;;3.84;0.89;;;;;;;30.58;38.59;99458.81;1991430;81;20213;-70
2021/06/04 14:53:36;;;;;;;1.74;0.76;;;;;;;30.33;38.15;99457.38;1992011;81;20731;-71
2021/06/04 14:56:39;;;;;;;3.54;0.91;;;;;;;30.26;38.79;99464.22;1990030;81;20267;-71
2021/06/04 14:59:42;;;;;;;2.38;0.70;;;;;;;30.12;37.77;99459.19;1990457;81;20205;-71
2021/06/04 15:02:45;;;;;;;6.22;0.66;;;;;;;30.33;37.61;99451.16;1994275;78;20234;-77
2021/06/04 15:05:48;;;;;;;3.08;0.70;;;;;;;30.44;36.88;99451.09;1994326;81;20301;-75
2021/06/04 15:08:52;;;;;;;2.60;0.68;;;;;;;30.61;37.96;99449.66;1995457;81;20186;-77
2021/06/04 15:11:54;;;;;;;2.22;0.60;;;;;;;30.93;37.77;99454.94;1994717;81;20219;-84
2021/06/04 15:14:58;;;;;;;2.54;0.66;;;;;;;30.73;35.18;99455.81;1996002;81;20704;-72
2021/06/04 15:18:03;;;;;;;3.35;0.70;;;;;;;30.47;35.66;99456.19;1988295;78;48418;-70
2021/06/04 15:21:11;;;;;;;1.48;0.59;;;;;;;30.46;35.63;99453.66;1989125;81;20171;-70
2021/06/04 15:24:14;;;;;;;1.83;0.82;;;;;;;30.24;35.62;99446.59;1990012;81;20790;-70
2021/06/04 15:27:17;;;;;;;5.45;0.77;;;;;;;30.17;36.81;99450.78;1989772;81;21000;-70
2021/06/04 15:30:20;;;;;;;4.75;0.70;;;;;;;30.35;36.76;99447.41;1988864;81;20252;-70
2021/06/04 15:33:23;;;;;;;2.63;0.71;;;;;;;30.63;36.17;99440.53;1989415;81;20194;-71
2021/06/04 15:36:27;;;;;;;2.78;0.80;;;;;;;30.65;35.38;99440.38;1988898;81;20291;-70
2021/06/04 15:39:30;;;;;;;4.30;0.70;;;;;;;30.78;36.22;99435.66;1989495;81;20257;-70